Time;durP1;ratioP1;P1;durP2;ratioP2;P2;SDS_P1;SDS_P2;PMS_P1;PMS_P2;Temp;Humidity;BMP_temperature;BMP_pressure;BME280_temperature;BME280_humidity;BME280_pressure;Samples;Min_cycle;Max_cycle;Signal;HPM_P1;HPM_P2
2021/10/09 00:00:33;;;;;;;4.15;2.30;;;;;;;;;;5065644;28;21087;-78
2021/10/09 00:03:00;;;;;;;2.30;1.83;;;;;;;;;;5070589;28;20496;-78
2021/10/09 00:05:26;;;;;;;2.75;2.17;;;;;;;;;;5067674;28;20069;-77
2021/10/09 00:07:52;;;;;;;2.90;2.10;;;;;;;;;;5061768;28;20064;-77
2021/10/09 00:10:27;;;;;;;3.35;2.03;;;;;;;;;;5068902;28;20057;-77
2021/10/09 00:12:54;;;;;;;2.80;1.75;;;;;;;;;;5067018;28;20086;-77
2021/10/09 00:15:20;;;;;;;2.75;1.98;;;;;;;;;;5068572;28;20123;-78
2021/10/09 00:17:47;;;;;;;3.17;1.90;;;;;;;;;;5070412;28;20645;-78
2021/10/09 00:20:13;;;;;;;2.42;1.75;;;;;;;;;;5059211;28;20566;-78
2021/10/09 00:22:40;;;;;;;2.72;2.15;;;;;;;;;;5067666;28;20110;-78
2021/10/09 00:25:07;;;;;;;2.90;2.03;;;;;;;;;;5066698;28;20068;-77
2021/10/09 00:27:34;;;;;;;2.58;1.77;;;;;;;;;;5067451;28;22111;-78
2021/10/09 00:30:00;;;;;;;2.30;1.50;;;;;;;;;;5067499;28;20642;-78
2021/10/09 00:32:27;;;;;;;2.55;1.80;;;;;;;;;;5063043;28;20044;-78
2021/10/09 00:34:53;;;;;;;2.40;1.80;;;;;;;;;;5068388;28;20599;-78
2021/10/09 00:37:20;;;;;;;2.97;1.83;;;;;;;;;;5066125;28;20037;-78
2021/10/09 00:39:46;;;;;;;2.30;1.67;;;;;;;;;;5064074;28;20214;-77
2021/10/09 00:42:12;;;;;;;3.00;1.85;;;;;;;;;;5065851;28;20072;-77
2021/10/09 00:44:39;;;;;;;2.78;1.90;;;;;;;;;;5065892;28;20079;-77
2021/10/09 00:47:06;;;;;;;2.42;1.73;;;;;;;;;;5065903;28;20464;-77
2021/10/09 00:49:32;;;;;;;2.60;1.70;;;;;;;;;;5063195;28;20045;-77
2021/10/09 00:51:59;;;;;;;3.85;1.92;;;;;;;;;;5065177;28;20068;-77
2021/10/09 00:54:27;;;;;;;2.97;1.58;;;;;;;;;;5066730;28;20499;-78
2021/10/09 00:56:56;;;;;;;2.35;1.70;;;;;;;;;;5065551;28;20068;-76
2021/10/09 00:59:25;;;;;;;3.40;1.70;;;;;;;;;;5066408;28;20068;-77
2021/10/09 01:01:52;;;;;;;2.17;1.70;;;;;;;;;;5065162;28;20082;-76
2021/10/09 01:04:19;;;;;;;2.60;1.60;;;;;;;;;;5061595;28;20056;-77
2021/10/09 01:06:46;;;;;;;2.17;1.55;;;;;;;;;;5067004;28;20083;-77
2021/10/09 01:09:12;;;;;;;2.30;1.73;;;;;;;;;;5067723;28;20025;-77
2021/10/09 01:11:40;;;;;;;4.15;1.70;;;;;;;;;;5068396;28;20060;-77
2021/10/09 01:14:07;;;;;;;2.75;1.50;;;;;;;;;;5070128;28;20133;-78
2021/10/09 01:16:33;;;;;;;2.25;1.60;;;;;;;;;;5066118;28;20056;-77
2021/10/09 01:18:59;;;;;;;2.83;1.80;;;;;;;;;;5067727;28;20056;-77
2021/10/09 01:21:26;;;;;;;2.20;1.40;;;;;;;;;;5065927;28;20060;-77
2021/10/09 01:23:53;;;;;;;2.20;1.65;;;;;;;;;;5064559;28;20079;-77
2021/10/09 01:26:20;;;;;;;2.10;1.50;;;;;;;;;;5060963;28;20047;-76
2021/10/09 01:28:48;;;;;;;2.65;1.65;;;;;;;;;;5066453;28;20048;-76
2021/10/09 01:31:15;;;;;;;1.98;1.40;;;;;;;;;;5066115;28;20079;-77
2021/10/09 01:33:42;;;;;;;2.30;1.63;;;;;;;;;;5058400;28;20059;-77
2021/10/09 01:36:08;;;;;;;2.17;1.60;;;;;;;;;;5067262;28;20488;-77
2021/10/09 01:38:38;;;;;;;2.45;1.67;;;;;;;;;;5067442;28;20086;-77
2021/10/09 01:41:06;;;;;;;2.67;1.70;;;;;;;;;;5066442;28;20090;-77
2021/10/09 01:43:32;;;;;;;3.10;1.60;;;;;;;;;;5067937;28;20060;-76
2021/10/09 01:45:59;;;;;;;2.50;1.83;;;;;;;;;;5065441;28;20067;-76
2021/10/09 01:48:34;;;;;;;2.10;1.55;;;;;;;;;;5071535;28;20060;-76
2021/10/09 01:51:00;;;;;;;2.83;1.95;;;;;;;;;;5063534;28;20060;-77
2021/10/09 01:53:27;;;;;;;1.98;1.40;;;;;;;;;;5063654;28;20083;-77
2021/10/09 01:55:54;;;;;;;2.08;1.60;;;;;;;;;;5065394;28;20071;-77
2021/10/09 01:58:20;;;;;;;2.13;1.50;;;;;;;;;;5063385;28;20067;-76
2021/10/09 02:00:47;;;;;;;2.50;1.80;;;;;;;;;;5066370;28;20086;-77
2021/10/09 02:03:16;;;;;;;2.30;1.75;;;;;;;;;;5060551;28;20068;-78
2021/10/09 02:05:43;;;;;;;1.85;1.50;;;;;;;;;;5065093;28;20062;-77
2021/10/09 02:08:10;;;;;;;2.00;1.38;;;;;;;;;;5068887;28;20048;-78
2021/10/09 02:10:45;;;;;;;2.17;1.45;;;;;;;;;;5066311;28;20434;-77
2021/10/09 02:13:14;;;;;;;1.90;1.35;;;;;;;;;;5057290;28;20072;-78
2021/10/09 02:15:46;;;;;;;2.10;1.50;;;;;;;;;;5068546;28;20102;-77
2021/10/09 02:26:27;;;;;;;2.17;1.52;;;;;;;;;;5064824;28;20202;-77
2021/10/09 02:28:54;;;;;;;3.20;1.77;;;;;;;;;;5065824;28;20057;-76
2021/10/09 02:31:20;;;;;;;2.20;1.50;;;;;;;;;;5062449;28;20118;-76
2021/10/09 02:33:47;;;;;;;2.55;1.65;;;;;;;;;;5073132;28;20032;-76
2021/10/09 02:36:13;;;;;;;2.22;1.60;;;;;;;;;;5059475;28;20560;-77
2021/10/09 02:38:40;;;;;;;2.20;1.70;;;;;;;;;;5066918;28;20060;-77
2021/10/09 02:41:06;;;;;;;2.50;1.65;;;;;;;;;;5058801;28;20545;-76
2021/10/09 02:43:33;;;;;;;2.45;1.70;;;;;;;;;;5058657;28;20506;-76
2021/10/09 02:45:59;;;;;;;2.40;1.80;;;;;;;;;;5061182;28;20049;-76
2021/10/09 02:48:25;;;;;;;2.35;1.52;;;;;;;;;;5062604;28;20311;-76
2021/10/09 02:50:52;;;;;;;2.65;1.80;;;;;;;;;;5069815;28;20451;-76
2021/10/09 02:53:18;;;;;;;2.33;1.52;;;;;;;;;;5064150;28;20072;-76
2021/10/09 02:55:44;;;;;;;2.08;1.58;;;;;;;;;;5068655;28;20528;-75
2021/10/09 02:58:11;;;;;;;2.38;1.60;;;;;;;;;;5059320;28;20071;-76
2021/10/09 03:00:37;;;;;;;2.10;1.60;;;;;;;;;;5060488;28;20064;-76
2021/10/09 03:03:04;;;;;;;2.00;1.50;;;;;;;;;;5067496;28;20068;-77
2021/10/09 03:05:30;;;;;;;2.50;1.65;;;;;;;;;;5070386;28;20067;-76
2021/10/09 03:07:57;;;;;;;1.95;1.35;;;;;;;;;;5068264;28;20157;-76
2021/10/09 03:10:23;;;;;;;2.35;1.55;;;;;;;;;;5064174;28;20056;-76
2021/10/09 03:12:50;;;;;;;2.47;1.70;;;;;;;;;;5064772;28;20059;-76
2021/10/09 03:15:16;;;;;;;1.95;1.35;;;;;;;;;;5065396;28;20068;-77
2021/10/09 03:17:43;;;;;;;2.78;1.80;;;;;;;;;;5069321;28;20056;-76
2021/10/09 03:20:10;;;;;;;2.50;1.98;;;;;;;;;;5064149;28;20056;-77
2021/10/09 03:22:38;;;;;;;2.58;1.80;;;;;;;;;;5059963;28;20036;-76
2021/10/09 03:25:06;;;;;;;2.97;1.90;;;;;;;;;;5057278;28;20068;-77
2021/10/09 03:27:32;;;;;;;2.60;1.73;;;;;;;;;;5075122;28;20056;-77
2021/10/09 03:29:58;;;;;;;2.63;1.80;;;;;;;;;;5071351;28;20056;-77
2021/10/09 03:32:25;;;;;;;2.20;1.50;;;;;;;;;;5063809;28;20029;-77
2021/10/09 03:34:52;;;;;;;2.75;1.80;;;;;;;;;;5071374;28;20068;-77
2021/10/09 03:37:18;;;;;;;2.53;1.88;;;;;;;;;;5067958;28;20059;-78
2021/10/09 03:39:47;;;;;;;3.05;2.05;;;;;;;;;;5065504;28;20035;-78
2021/10/09 03:42:25;;;;;;;2.28;1.65;;;;;;;;;;5068330;28;20127;-79
2021/10/09 03:44:59;;;;;;;1.95;1.55;;;;;;;;;;5067195;28;20095;-78
2021/10/09 03:52:43;;;;;;;2.80;1.50;;;;;;;;;;5066739;28;21131;-77
2021/10/09 03:55:11;;;;;;;2.17;1.63;;;;;;;;;;5073099;28;20480;-77
2021/10/09 03:57:37;;;;;;;2.97;1.92;;;;;;;;;;5069299;28;20029;-78
2021/10/09 04:00:14;;;;;;;2.47;1.77;;;;;;;;;;5067201;28;20036;-77
2021/10/09 04:02:40;;;;;;;2.45;1.80;;;;;;;;;;5067481;28;21670;-77
2021/10/09 04:05:07;;;;;;;2.50;1.90;;;;;;;;;;5062098;28;20644;-78
2021/10/09 04:07:34;;;;;;;2.65;1.95;;;;;;;;;;5066435;28;20504;-78
2021/10/09 04:10:00;;;;;;;2.75;1.65;;;;;;;;;;5069237;28;20542;-78
2021/10/09 04:12:26;;;;;;;2.53;1.70;;;;;;;;;;5067041;28;20056;-78
2021/10/09 04:14:53;;;;;;;2.60;1.80;;;;;;;;;;5070856;28;20055;-77
2021/10/09 04:17:19;;;;;;;2.95;2.05;;;;;;;;;;5066590;28;20137;-77
2021/10/09 04:19:45;;;;;;;2.50;1.85;;;;;;;;;;5061392;28;20098;-78
2021/10/09 04:22:12;;;;;;;2.08;1.55;;;;;;;;;;5065125;28;20060;-79
2021/10/09 04:24:38;;;;;;;2.72;1.70;;;;;;;;;;5068021;28;20072;-78
2021/10/09 04:27:05;;;;;;;2.90;2.22;;;;;;;;;;5062782;28;20086;-77
2021/10/09 04:29:31;;;;;;;2.83;2.08;;;;;;;;;;5068219;28;20515;-76
2021/10/09 04:31:58;;;;;;;2.55;1.88;;;;;;;;;;5073223;28;20064;-76
2021/10/09 04:34:24;;;;;;;2.40;1.60;;;;;;;;;;5060045;28;20049;-77
2021/10/09 04:36:51;;;;;;;2.67;1.65;;;;;;;;;;5071748;28;20122;-77
2021/10/09 04:39:20;;;;;;;2.67;1.80;;;;;;;;;;5067057;28;20056;-77
2021/10/09 04:41:46;;;;;;;3.53;2.17;;;;;;;;;;5071969;28;20515;-77
2021/10/09 04:44:12;;;;;;;2.70;1.77;;;;;;;;;;5067007;28;20040;-77
2021/10/09 04:46:39;;;;;;;2.65;1.77;;;;;;;;;;5064398;28;20067;-77
2021/10/09 04:49:05;;;;;;;2.70;1.77;;;;;;;;;;5067297;28;20056;-77
2021/10/09 04:51:32;;;;;;;2.50;1.90;;;;;;;;;;5063368;28;20492;-77
2021/10/09 04:53:58;;;;;;;2.70;1.80;;;;;;;;;;5067545;28;20064;-76
2021/10/09 04:56:24;;;;;;;2.63;1.90;;;;;;;;;;5065474;28;20056;-76
2021/10/09 04:58:52;;;;;;;4.50;1.80;;;;;;;;;;5068794;28;20551;-77
2021/10/09 05:01:19;;;;;;;2.95;2.30;;;;;;;;;;5066324;28;20040;-77
2021/10/09 05:03:45;;;;;;;2.50;1.90;;;;;;;;;;5070798;28;20056;-77
2021/10/09 05:06:11;;;;;;;2.55;1.70;;;;;;;;;;5064757;28;20075;-77
2021/10/09 05:08:38;;;;;;;2.60;1.95;;;;;;;;;;5053075;28;20124;-77
2021/10/09 05:11:05;;;;;;;3.55;1.90;;;;;;;;;;5065973;28;20500;-77
2021/10/09 05:13:31;;;;;;;2.80;1.88;;;;;;;;;;5066804;28;20068;-77
2021/10/09 05:15:57;;;;;;;2.95;1.80;;;;;;;;;;5079816;28;20032;-76
2021/10/09 05:18:24;;;;;;;2.88;1.90;;;;;;;;;;5075224;28;20036;-77
2021/10/09 05:20:50;;;;;;;2.88;1.83;;;;;;;;;;5062051;28;20048;-77
2021/10/09 05:23:17;;;;;;;2.70;1.98;;;;;;;;;;5066576;28;20079;-77
2021/10/09 05:25:44;;;;;;;2.80;2.05;;;;;;;;;;5065608;28;20065;-77
2021/10/09 05:28:17;;;;;;;2.40;1.92;;;;;;;;;;5066106;28;20052;-78
2021/10/09 05:30:47;;;;;;;2.63;1.92;;;;;;;;;;5066764;28;20071;-77
2021/10/09 05:33:36;;;;;;;2.53;1.73;;;;;;;;;;5063926;28;20117;-77
2021/10/09 05:36:06;;;;;;;2.67;1.75;;;;;;;;;;5066012;28;20086;-76
2021/10/09 05:38:32;;;;;;;2.60;1.80;;;;;;;;;;5065162;28;20033;-76
2021/10/09 05:40:59;;;;;;;3.33;2.17;;;;;;;;;;5066869;28;20413;-77
2021/10/09 05:43:26;;;;;;;4.07;2.30;;;;;;;;;;5067636;28;20517;-77
2021/10/09 05:45:53;;;;;;;2.80;2.05;;;;;;;;;;5066274;28;20536;-76
2021/10/09 05:48:19;;;;;;;2.50;1.73;;;;;;;;;;5066625;28;20067;-77
2021/10/09 05:56:07;;;;;;;3.08;2.00;;;;;;;;;;5059619;28;20105;-78
2021/10/09 05:58:59;;;;;;;2.75;1.90;;;;;;;;;;5057357;28;20409;-77
2021/10/09 06:38:11;;;;;;;3.33;2.00;;;;;;;;;;5072724;28;20478;-81
2021/10/09 06:59:32;;;;;;;3.80;2.45;;;;;;;;;;5066868;28;20714;-81
2021/10/09 07:01:59;;;;;;;3.38;2.22;;;;;;;;;;5072208;28;20500;-81
2021/10/09 07:04:26;;;;;;;2.80;1.85;;;;;;;;;;5063756;28;20028;-82
2021/10/09 07:06:53;;;;;;;3.47;2.10;;;;;;;;;;5060476;28;20453;-81
2021/10/09 07:09:20;;;;;;;3.05;2.10;;;;;;;;;;5063886;28;20028;-83
2021/10/09 07:11:46;;;;;;;2.85;1.98;;;;;;;;;;5061678;28;20516;-82
2021/10/09 07:14:13;;;;;;;4.65;2.20;;;;;;;;;;5061104;28;20106;-83
2021/10/09 07:16:39;;;;;;;3.25;2.17;;;;;;;;;;5070271;28;20028;-82
2021/10/09 07:19:05;;;;;;;5.20;2.13;;;;;;;;;;5064809;28;20063;-82
2021/10/09 07:21:32;;;;;;;3.60;2.20;;;;;;;;;;5069256;28;20529;-82
2021/10/09 07:23:58;;;;;;;3.47;2.38;;;;;;;;;;5062319;28;20059;-82
2021/10/09 07:26:25;;;;;;;2.72;2.25;;;;;;;;;;5065697;28;20068;-82
2021/10/09 07:28:51;;;;;;;4.95;2.60;;;;;;;;;;5071686;28;20071;-83
2021/10/09 07:31:18;;;;;;;3.45;2.20;;;;;;;;;;5070503;28;20083;-82
2021/10/09 07:33:44;;;;;;;3.60;2.42;;;;;;;;;;5070516;28;20068;-82
2021/10/09 07:36:11;;;;;;;4.07;2.42;;;;;;;;;;5066558;28;20056;-82
2021/10/09 07:38:37;;;;;;;4.35;2.33;;;;;;;;;;5068151;28;20071;-81
2021/10/09 07:41:04;;;;;;;3.50;2.45;;;;;;;;;;5056482;28;20120;-81
2021/10/09 07:43:30;;;;;;;3.95;2.20;;;;;;;;;;5067430;28;20384;-82
2021/10/09 07:45:57;;;;;;;2.95;2.20;;;;;;;;;;5067748;28;20068;-81
2021/10/09 07:48:23;;;;;;;3.10;2.30;;;;;;;;;;5062564;28;20578;-82
2021/10/09 07:50:50;;;;;;;2.97;2.00;;;;;;;;;;5064536;28;20086;-81
2021/10/09 07:53:16;;;;;;;3.72;2.40;;;;;;;;;;5062459;28;21344;-82
2021/10/09 07:55:43;;;;;;;3.10;2.20;;;;;;;;;;5067149;28;20065;-81
2021/10/09 07:58:09;;;;;;;3.17;2.30;;;;;;;;;;5070851;28;20602;-82
2021/10/09 08:00:35;;;;;;;4.53;2.38;;;;;;;;;;5073321;28;20059;-79
2021/10/09 08:03:04;;;;;;;3.60;2.75;;;;;;;;;;5068353;28;20475;-80
2021/10/09 08:05:33;;;;;;;4.30;2.50;;;;;;;;;;5064972;28;20063;-81
2021/10/09 08:07:59;;;;;;;3.30;2.38;;;;;;;;;;5062916;28;20037;-81
2021/10/09 08:10:26;;;;;;;3.58;2.70;;;;;;;;;;5076661;28;20020;-82
2021/10/09 08:12:52;;;;;;;3.65;2.50;;;;;;;;;;5068284;28;20064;-82
2021/10/09 08:15:19;;;;;;;3.22;2.28;;;;;;;;;;5067227;28;20060;-82
2021/10/09 08:17:45;;;;;;;4.15;2.58;;;;;;;;;;5068808;28;20056;-83
2021/10/09 08:20:13;;;;;;;3.78;2.63;;;;;;;;;;5068060;28;20063;-81
2021/10/09 08:22:55;;;;;;;3.22;2.40;;;;;;;;;;5068372;28;20679;-82
2021/10/09 08:38:56;;;;;;;4.28;2.35;;;;;;;;;;5069350;28;20050;-82
2021/10/09 08:41:23;;;;;;;4.28;2.70;;;;;;;;;;5060200;28;20488;-82
2021/10/09 08:43:50;;;;;;;4.22;2.50;;;;;;;;;;5059265;28;20063;-82
2021/10/09 08:46:18;;;;;;;4.22;2.80;;;;;;;;;;5062905;28;20041;-80
2021/10/09 08:48:49;;;;;;;4.57;2.58;;;;;;;;;;5068132;28;20055;-81
2021/10/09 08:51:22;;;;;;;3.88;2.60;;;;;;;;;;5066151;28;20033;-83
2021/10/09 08:53:49;;;;;;;4.60;2.75;;;;;;;;;;5066964;28;20032;-82
2021/10/09 08:56:36;;;;;;;3.60;2.83;;;;;;;;;;5061083;28;20068;-82
2021/10/09 08:59:20;;;;;;;3.75;2.75;;;;;;;;;;5065269;28;20450;-82
2021/10/09 09:02:00;;;;;;;4.18;3.00;;;;;;;;;;5059890;28;20451;-80
2021/10/09 09:04:36;;;;;;;3.35;2.42;;;;;;;;;;5063508;28;20025;-81
2021/10/09 09:07:19;;;;;;;3.83;2.65;;;;;;;;;;5068408;28;20396;-81
2021/10/09 09:31:43;;;;;;;4.72;3.17;;;;;;;;;;5060969;28;20480;-78
2021/10/09 09:37:04;;;;;;;3.97;2.95;;;;;;;;;;5053409;28;20130;-80
2021/10/09 09:39:38;;;;;;;4.10;2.97;;;;;;;;;;5063409;28;20064;-80
2021/10/09 09:42:04;;;;;;;4.03;2.85;;;;;;;;;;5064876;28;20510;-80
2021/10/09 09:44:31;;;;;;;4.50;3.10;;;;;;;;;;5060684;28;20086;-80
2021/10/09 09:47:05;;;;;;;4.13;2.92;;;;;;;;;;5064474;28;20056;-80
2021/10/09 09:49:32;;;;;;;3.95;2.92;;;;;;;;;;5066904;28;20134;-80
2021/10/09 09:51:58;;;;;;;3.83;3.08;;;;;;;;;;5065816;28;20111;-80
2021/10/09 09:54:26;;;;;;;4.72;3.38;;;;;;;;;;5062185;28;20033;-80
2021/10/09 09:56:56;;;;;;;4.03;3.00;;;;;;;;;;5072967;28;20105;-80
2021/10/09 09:59:26;;;;;;;4.60;3.17;;;;;;;;;;5074508;28;20089;-80
2021/10/09 10:01:52;;;;;;;4.82;2.90;;;;;;;;;;5070952;28;20040;-80
2021/10/09 10:04:19;;;;;;;4.45;2.95;;;;;;;;;;5063894;28;20040;-81
2021/10/09 10:06:46;;;;;;;5.32;3.38;;;;;;;;;;5070593;28;20102;-81
2021/10/09 10:09:12;;;;;;;5.32;3.20;;;;;;;;;;5071355;28;20586;-81
2021/10/09 10:11:39;;;;;;;4.30;3.20;;;;;;;;;;5072959;28;20055;-80
2021/10/09 10:14:05;;;;;;;5.05;2.97;;;;;;;;;;5073706;28;20086;-80
2021/10/09 10:16:32;;;;;;;3.83;2.88;;;;;;;;;;5068068;28;20067;-81
2021/10/09 10:18:58;;;;;;;5.30;3.00;;;;;;;;;;5065240;28;20063;-81
2021/10/09 10:21:37;;;;;;;4.25;3.35;;;;;;;;;;5067861;28;20029;-81
2021/10/09 10:24:04;;;;;;;5.15;3.38;;;;;;;;;;5068971;28;20041;-81
2021/10/09 10:26:31;;;;;;;4.85;3.20;;;;;;;;;;5061887;28;20072;-81
2021/10/09 10:28:57;;;;;;;3.97;2.95;;;;;;;;;;5060999;28;20060;-81
2021/10/09 10:31:25;;;;;;;4.45;3.17;;;;;;;;;;5067405;28;20035;-81
2021/10/09 10:33:59;;;;;;;4.35;3.10;;;;;;;;;;5071481;28;20142;-80
2021/10/09 10:36:45;;;;;;;4.35;2.90;;;;;;;;;;5065910;28;20137;-81
2021/10/09 10:39:12;;;;;;;5.50;3.00;;;;;;;;;;5067019;28;20037;-80
2021/10/09 10:41:39;;;;;;;3.92;3.03;;;;;;;;;;5064927;28;20122;-80
2021/10/09 10:44:08;;;;;;;4.85;2.80;;;;;;;;;;5062633;28;20029;-80
2021/10/09 10:46:56;;;;;;;6.45;3.53;;;;;;;;;;5071017;28;20048;-84
2021/10/09 10:49:42;;;;;;;9.85;4.80;;;;;;;;;;5069152;28;20098;-80
2021/10/09 10:52:12;;;;;;;11.98;4.97;;;;;;;;;;5069287;28;20061;-80
2021/10/09 10:54:59;;;;;;;10.90;4.70;;;;;;;;;;5069672;28;20540;-81
2021/10/09 10:57:25;;;;;;;11.05;4.95;;;;;;;;;;5064657;28;20450;-81
2021/10/09 10:59:55;;;;;;;13.25;5.20;;;;;;;;;;5069124;28;20060;-81
2021/10/09 11:02:25;;;;;;;15.00;5.05;;;;;;;;;;5068600;28;20028;-80
2021/10/09 11:05:01;;;;;;;10.30;4.80;;;;;;;;;;5067243;28;20044;-81
2021/10/09 11:07:29;;;;;;;9.73;4.38;;;;;;;;;;5063962;28;20045;-80
2021/10/09 11:10:06;;;;;;;11.65;4.88;;;;;;;;;;5064622;28;20044;-80
2021/10/09 11:12:34;;;;;;;7.85;4.40;;;;;;;;;;5049554;28;20460;-80
2021/10/09 11:15:05;;;;;;;7.63;4.22;;;;;;;;;;5071166;28;20063;-80
2021/10/09 11:17:39;;;;;;;7.88;3.80;;;;;;;;;;5067068;28;20126;-81
2021/10/09 11:20:12;;;;;;;10.48;4.80;;;;;;;;;;5040675;28;20048;-80
2021/10/09 11:22:43;;;;;;;9.45;3.95;;;;;;;;;;5067305;28;20040;-81
2021/10/09 11:25:09;;;;;;;;;;;;;;;;;;5065283;28;20045;-81
2021/10/09 11:27:38;;;;;;;7.65;4.00;;;;;;;;;;5050162;28;20288;-82
2021/10/09 11:30:08;;;;;;;8.02;4.53;;;;;;;;;;5065811;28;20408;-81
2021/10/09 11:32:36;;;;;;;6.75;3.80;;;;;;;;;;5070998;28;20666;-80
2021/10/09 11:35:03;;;;;;;7.40;3.92;;;;;;;;;;5081220;28;20059;-79
2021/10/09 11:37:30;;;;;;;7.45;4.25;;;;;;;;;;5075342;28;20032;-79
2021/10/09 11:40:00;;;;;;;8.50;4.05;;;;;;;;;;5075195;28;20041;-80
2021/10/09 11:42:41;;;;;;;8.38;4.03;;;;;;;;;;5076159;28;20021;-80
2021/10/09 11:45:25;;;;;;;;;;;;;;;;;;5075542;28;20037;-80
2021/10/09 11:53:47;;;;;;;9.13;4.00;;;;;;;;;;5068001;28;20184;-80
2021/10/09 11:56:15;;;;;;;6.93;3.67;;;;;;;;;;5063086;28;20553;-80
2021/10/09 11:58:48;;;;;;;6.90;4.00;;;;;;;;;;5072823;28;20041;-80
2021/10/09 12:01:23;;;;;;;6.53;4.03;;;;;;;;;;5083614;28;20025;-80
2021/10/09 12:03:53;;;;;;;7.93;4.03;;;;;;;;;;5076358;28;20058;-80
2021/10/09 12:06:19;;;;;;;7.15;4.25;;;;;;;;;;5081798;28;20063;-80
2021/10/09 12:08:51;;;;;;;5.85;4.20;;;;;;;;;;5086213;28;20029;-80
2021/10/09 12:11:21;;;;;;;6.50;4.05;;;;;;;;;;5080834;28;20049;-81
2021/10/09 12:14:01;;;;;;;7.90;4.20;;;;;;;;;;5076238;28;20028;-80
2021/10/09 12:16:28;;;;;;;6.75;3.97;;;;;;;;;;5072948;28;20082;-81
2021/10/09 12:18:57;;;;;;;6.57;4.03;;;;;;;;;;5083648;28;20048;-80
2021/10/09 12:21:25;;;;;;;7.65;4.13;;;;;;;;;;5087317;28;20043;-80
2021/10/09 12:23:53;;;;;;;7.50;3.97;;;;;;;;;;5092598;28;20067;-80
2021/10/09 12:26:21;;;;;;;7.63;4.35;;;;;;;;;;5091939;28;20045;-80
2021/10/09 12:29:03;;;;;;;7.38;3.92;;;;;;;;;;5090555;28;20496;-80
2021/10/09 12:31:31;;;;;;;5.85;4.07;;;;;;;;;;5079673;28;20071;-80
2021/10/09 12:33:57;;;;;;;8.25;3.85;;;;;;;;;;5073728;28;20032;-81
2021/10/09 12:36:41;;;;;;;7.90;4.25;;;;;;;;;;5064766;28;20024;-80
2021/10/09 12:39:27;;;;;;;5.93;4.03;;;;;;;;;;5076499;28;20040;-80
2021/10/09 12:41:54;;;;;;;6.63;4.50;;;;;;;;;;5074300;28;20041;-80
2021/10/09 12:44:21;;;;;;;10.15;4.50;;;;;;;;;;5071207;28;20452;-80
2021/10/09 12:46:48;;;;;;;7.72;3.78;;;;;;;;;;5082533;28;20041;-81
2021/10/09 12:49:16;;;;;;;5.38;4.07;;;;;;;;;;5079300;28;20047;-81
2021/10/09 12:51:42;;;;;;;7.07;4.20;;;;;;;;;;5078837;28;20039;-79
2021/10/09 12:54:09;;;;;;;7.63;4.18;;;;;;;;;;5078074;28;20044;-81
2021/10/09 12:56:36;;;;;;;5.65;3.95;;;;;;;;;;5072352;28;20029;-80
2021/10/09 12:59:03;;;;;;;6.05;4.07;;;;;;;;;;5067204;28;20086;-80
2021/10/09 13:01:30;;;;;;;4.90;3.88;;;;;;;;;;5076706;28;20040;-81
2021/10/09 13:03:57;;;;;;;9.50;4.35;;;;;;;;;;5075118;28;20495;-80
2021/10/09 13:06:23;;;;;;;7.07;4.32;;;;;;;;;;5065191;28;20569;-79
2021/10/09 13:08:50;;;;;;;5.82;3.95;;;;;;;;;;5069461;28;20028;-80
2021/10/09 13:11:23;;;;;;;6.38;3.75;;;;;;;;;;5076128;28;20534;-79
2021/10/09 13:13:49;;;;;;;6.40;4.32;;;;;;;;;;5059431;28;20083;-81
2021/10/09 13:16:16;;;;;;;7.20;4.07;;;;;;;;;;5071067;28;20033;-81
2021/10/09 13:18:42;;;;;;;6.93;4.13;;;;;;;;;;5069344;28;20544;-80
2021/10/09 13:21:09;;;;;;;7.18;4.05;;;;;;;;;;5069410;28;20028;-81
2021/10/09 13:23:35;;;;;;;6.93;4.30;;;;;;;;;;5067034;28;20568;-81
2021/10/09 13:26:03;;;;;;;6.68;3.70;;;;;;;;;;5068071;28;20454;-81
2021/10/09 13:28:31;;;;;;;4.88;3.60;;;;;;;;;;5070801;28;20141;-81
2021/10/09 13:30:58;;;;;;;6.90;4.10;;;;;;;;;;5072976;28;20630;-80
2021/10/09 13:33:24;;;;;;;6.78;3.90;;;;;;;;;;5064662;28;20037;-81
2021/10/09 13:35:50;;;;;;;7.07;3.80;;;;;;;;;;5067749;28;20056;-81
2021/10/09 13:38:17;;;;;;;5.20;3.78;;;;;;;;;;5067242;28;20051;-81
2021/10/09 13:40:43;;;;;;;5.45;3.97;;;;;;;;;;5066467;28;20048;-81
2021/10/09 13:43:13;;;;;;;5.63;3.90;;;;;;;;;;5067998;28;20036;-81
2021/10/09 13:45:46;;;;;;;4.95;4.00;;;;;;;;;;5066157;28;20816;-81
2021/10/09 13:48:12;;;;;;;6.95;4.28;;;;;;;;;;5072503;28;20110;-80
2021/10/09 13:50:51;;;;;;;7.20;3.83;;;;;;;;;;5060603;28;20472;-81
2021/10/09 13:53:17;;;;;;;6.43;4.13;;;;;;;;;;5067773;28;20076;-80
2021/10/09 13:55:44;;;;;;;5.25;3.78;;;;;;;;;;5061700;28;20041;-80
2021/10/09 13:58:11;;;;;;;5.40;4.00;;;;;;;;;;5059966;28;20557;-80
2021/10/09 14:00:38;;;;;;;5.00;4.00;;;;;;;;;;5066202;28;21571;-80
2021/10/09 14:03:13;;;;;;;6.80;3.90;;;;;;;;;;5064584;28;20558;-81
2021/10/09 14:05:39;;;;;;;5.75;3.97;;;;;;;;;;5047646;28;20586;-80
2021/10/09 14:08:06;;;;;;;6.78;4.68;;;;;;;;;;5067394;28;20083;-81
2021/10/09 14:10:33;;;;;;;6.10;4.38;;;;;;;;;;5061046;28;20052;-82
2021/10/09 14:13:03;;;;;;;5.43;3.97;;;;;;;;;;5070061;28;20500;-82
2021/10/09 14:15:30;;;;;;;5.82;4.18;;;;;;;;;;5059752;28;20115;-81
2021/10/09 14:17:56;;;;;;;5.93;4.15;;;;;;;;;;5068099;28;20081;-81
2021/10/09 14:20:22;;;;;;;5.50;3.50;;;;;;;;;;5068167;28;20064;-81
2021/10/09 14:22:49;;;;;;;6.97;4.03;;;;;;;;;;5065831;28;20504;-81
2021/10/09 14:25:15;;;;;;;6.55;4.15;;;;;;;;;;5074582;28;20469;-81
2021/10/09 14:27:42;;;;;;;6.85;4.20;;;;;;;;;;5067055;28;20075;-82
2021/10/09 14:30:09;;;;;;;5.32;4.05;;;;;;;;;;5063088;28;20118;-81
2021/10/09 14:32:36;;;;;;;5.43;3.63;;;;;;;;;;5062418;28;20063;-81
2021/10/09 14:35:03;;;;;;;6.63;4.05;;;;;;;;;;5070886;28;20056;-81
2021/10/09 14:37:29;;;;;;;6.00;3.67;;;;;;;;;;5067678;28;20393;-81
2021/10/09 14:39:56;;;;;;;6.40;4.03;;;;;;;;;;5068251;28;20069;-81
2021/10/09 14:42:22;;;;;;;6.65;4.18;;;;;;;;;;5063460;28;20060;-82
2021/10/09 14:44:49;;;;;;;6.22;3.83;;;;;;;;;;5066776;28;20049;-81
2021/10/09 14:52:37;;;;;;;6.63;4.00;;;;;;;;;;5070995;28;20352;-83
2021/10/09 15:17:45;;;;;;;5.82;3.88;;;;;;;;;;5064675;28;20083;-83
2021/10/09 15:20:12;;;;;;;5.53;3.47;;;;;;;;;;5067993;28;20033;-81
2021/10/09 15:22:39;;;;;;;5.82;3.78;;;;;;;;;;5052993;28;20064;-83
2021/10/09 15:25:05;;;;;;;5.68;3.85;;;;;;;;;;5064452;28;20037;-84
2021/10/09 15:27:32;;;;;;;5.22;3.60;;;;;;;;;;5069145;28;20102;-83
2021/10/09 15:29:59;;;;;;;5.40;4.30;;;;;;;;;;5069577;28;20032;-82
2021/10/09 15:32:25;;;;;;;4.65;3.42;;;;;;;;;;5063586;28;20067;-83
2021/10/09 15:34:52;;;;;;;6.28;4.43;;;;;;;;;;5068755;28;20059;-84
2021/10/09 15:37:18;;;;;;;5.00;3.83;;;;;;;;;;5063356;28;20554;-83
2021/10/09 15:39:47;;;;;;;6.53;3.55;;;;;;;;;;5070268;28;20033;-84
2021/10/09 15:42:14;;;;;;;5.45;3.95;;;;;;;;;;5069066;28;20070;-84
2021/10/09 15:44:40;;;;;;;7.90;4.38;;;;;;;;;;5067207;28;20455;-82
2021/10/09 15:47:06;;;;;;;5.80;3.95;;;;;;;;;;5067790;28;20128;-83
2021/10/09 15:49:33;;;;;;;5.72;4.07;;;;;;;;;;5062493;28;20060;-83
2021/10/09 15:51:59;;;;;;;5.72;3.90;;;;;;;;;;5068273;28;20060;-83
2021/10/09 15:54:26;;;;;;;4.95;3.88;;;;;;;;;;5069045;28;20102;-84
2021/10/09 15:56:52;;;;;;;9.25;4.15;;;;;;;;;;5064850;28;20052;-84
2021/10/09 15:59:18;;;;;;;5.65;3.97;;;;;;;;;;5065356;28;20033;-84
2021/10/09 16:01:45;;;;;;;6.03;4.00;;;;;;;;;;5074418;28;20046;-83
2021/10/09 16:04:11;;;;;;;5.88;4.20;;;;;;;;;;5066059;28;20070;-84
2021/10/09 16:06:37;;;;;;;5.55;3.97;;;;;;;;;;5068129;28;21169;-83
2021/10/09 16:09:04;;;;;;;6.63;4.30;;;;;;;;;;5068839;28;20060;-83
2021/10/09 16:11:31;;;;;;;6.07;3.78;;;;;;;;;;5070265;28;20697;-84
2021/10/09 16:14:04;;;;;;;5.30;4.30;;;;;;;;;;5068568;28;20129;-84
2021/10/09 16:16:31;;;;;;;6.07;4.00;;;;;;;;;;5074133;28;20029;-84
2021/10/09 16:18:57;;;;;;;5.82;4.10;;;;;;;;;;5077907;28;20083;-83
2021/10/09 16:21:24;;;;;;;5.75;4.00;;;;;;;;;;5068454;28;20624;-83
2021/10/09 16:23:50;;;;;;;6.00;4.22;;;;;;;;;;5069649;28;20067;-84
2021/10/09 16:26:16;;;;;;;5.88;4.50;;;;;;;;;;5067168;28;20064;-84
2021/10/09 16:28:43;;;;;;;5.13;3.70;;;;;;;;;;5069931;28;20063;-83
2021/10/09 16:31:09;;;;;;;5.93;4.70;;;;;;;;;;5069397;28;20052;-83
2021/10/09 16:33:36;;;;;;;5.50;3.88;;;;;;;;;;5064870;28;20060;-83
2021/10/09 16:36:02;;;;;;;5.25;4.00;;;;;;;;;;5068551;28;20067;-83
2021/10/09 16:38:29;;;;;;;7.25;4.28;;;;;;;;;;5068420;28;20097;-82
2021/10/09 16:40:55;;;;;;;5.80;3.65;;;;;;;;;;5067306;28;20059;-82
2021/10/09 16:43:21;;;;;;;7.45;4.68;;;;;;;;;;5061496;28;20060;-83
2021/10/09 16:45:48;;;;;;;5.47;4.05;;;;;;;;;;5068914;28;20068;-82
2021/10/09 16:48:14;;;;;;;7.38;4.20;;;;;;;;;;5068078;28;20036;-82
2021/10/09 16:50:41;;;;;;;5.05;3.78;;;;;;;;;;5063021;28;20037;-83
2021/10/09 16:53:07;;;;;;;7.97;4.32;;;;;;;;;;5064305;28;20083;-84
2021/10/09 16:55:34;;;;;;;6.18;4.50;;;;;;;;;;5061764;28;20063;-84
2021/10/09 16:58:00;;;;;;;6.80;4.45;;;;;;;;;;5063328;28;20060;-85
2021/10/09 17:00:26;;;;;;;5.85;4.07;;;;;;;;;;5064883;28;20048;-83
2021/10/09 17:02:53;;;;;;;7.22;4.05;;;;;;;;;;5062841;28;20061;-84
2021/10/09 17:05:19;;;;;;;7.32;4.53;;;;;;;;;;5071287;28;20071;-83
2021/10/09 17:07:46;;;;;;;7.90;4.35;;;;;;;;;;5067078;28;20059;-83
2021/10/09 17:10:12;;;;;;;6.90;4.38;;;;;;;;;;5066485;28;20137;-82
2021/10/09 17:12:38;;;;;;;7.43;4.50;;;;;;;;;;5064654;28;20063;-83
2021/10/09 17:15:06;;;;;;;7.47;4.78;;;;;;;;;;5064607;28;20061;-83